sensor_id;sensor_type;location;lat;lon;timestamp;P1;durP1;ratioP1;P2;durP2;ratioP2
61188;SDS011;47054;39.716;2.904;2022-09-09T00:13:40;8.85;;;1.90;;
61188;SDS011;47054;39.716;2.904;2022-09-09T00:16:36;5.65;;;1.80;;
61188;SDS011;47054;39.716;2.904;2022-09-09T00:19:31;5.25;;;2.10;;
61188;SDS011;47054;39.716;2.904;2022-09-09T00:22:24;4.90;;;1.73;;
61188;SDS011;47054;39.716;2.904;2022-09-09T00:25:14;5.15;;;1.67;;
61188;SDS011;47054;39.716;2.904;2022-09-09T00:28:25;4.18;;;1.75;;
61188;SDS011;47054;39.716;2.904;2022-09-09T00:31:13;9.48;;;3.55;;
61188;SDS011;47054;39.716;2.904;2022-09-09T00:34:12;22.05;;;10.10;;
61188;SDS011;47054;39.716;2.904;2022-09-09T00:36:57;18.35;;;9.07;;
61188;SDS011;47054;39.716;2.904;2022-09-09T00:39:42;9.85;;;4.28;;
61188;SDS011;47054;39.716;2.904;2022-09-09T00:57:37;6.38;;;3.05;;
61188;SDS011;47054;39.716;2.904;2022-09-09T01:03:21;5.53;;;2.63;;
61188;SDS011;47054;39.716;2.904;2022-09-09T01:06:31;5.38;;;2.30;;
61188;SDS011;47054;39.716;2.904;2022-09-09T01:12:53;8.20;;;2.55;;
61188;SDS011;47054;39.716;2.904;2022-09-09T01:15:42;6.20;;;2.20;;
61188;SDS011;47054;39.716;2.904;2022-09-09T01:18:39;5.50;;;1.90;;
61188;SDS011;47054;39.716;2.904;2022-09-09T01:28:30;4.32;;;2.17;;
61188;SDS011;47054;39.716;2.904;2022-09-09T01:31:26;3.65;;;1.98;;
61188;SDS011;47054;39.716;2.904;2022-09-09T01:34:14;6.70;;;1.92;;
61188;SDS011;47054;39.716;2.904;2022-09-09T01:37:07;4.10;;;2.10;;
61188;SDS011;47054;39.716;2.904;2022-09-09T01:39:54;6.30;;;2.22;;
61188;SDS011;47054;39.716;2.904;2022-09-09T01:42:39;5.13;;;1.70;;
61188;SDS011;47054;39.716;2.904;2022-09-09T01:45:24;5.13;;;2.15;;
61188;SDS011;47054;39.716;2.904;2022-09-09T01:48:09;3.35;;;1.63;;
61188;SDS011;47054;39.716;2.904;2022-09-09T01:51:03;4.72;;;1.67;;
61188;SDS011;47054;39.716;2.904;2022-09-09T01:53:48;5.35;;;1.80;;
61188;SDS011;47054;39.716;2.904;2022-09-09T01:59:33;4.85;;;1.80;;
61188;SDS011;47054;39.716;2.904;2022-09-09T02:05:36;6.70;;;2.22;;
61188;SDS011;47054;39.716;2.904;2022-09-09T02:08:24;4.40;;;1.88;;
61188;SDS011;47054;39.716;2.904;2022-09-09T02:11:23;4.85;;;1.70;;
61188;SDS011;47054;39.716;2.904;2022-09-09T02:14:22;5.05;;;1.90;;
61188;SDS011;47054;39.716;2.904;2022-09-09T02:17:10;3.67;;;1.77;;
61188;SDS011;47054;39.716;2.904;2022-09-09T02:20:12;5.78;;;1.65;;
61188;SDS011;47054;39.716;2.904;2022-09-09T02:23:13;6.53;;;1.85;;
61188;SDS011;47054;39.716;2.904;2022-09-09T02:26:00;3.92;;;1.70;;
61188;SDS011;47054;39.716;2.904;2022-09-09T02:28:46;5.32;;;2.20;;
61188;SDS011;47054;39.716;2.904;2022-09-09T02:31:32;5.50;;;1.90;;
61188;SDS011;47054;39.716;2.904;2022-09-09T02:34:23;5.78;;;1.83;;
61188;SDS011;47054;39.716;2.904;2022-09-09T02:37:09;4.15;;;1.70;;
61188;SDS011;47054;39.716;2.904;2022-09-09T02:39:56;5.55;;;1.90;;
61188;SDS011;47054;39.716;2.904;2022-09-09T02:42:43;5.40;;;1.92;;
61188;SDS011;47054;39.716;2.904;2022-09-09T02:49:11;2.75;;;1.70;;
61188;SDS011;47054;39.716;2.904;2022-09-09T02:52:05;5.72;;;2.47;;
61188;SDS011;47054;39.716;2.904;2022-09-09T02:55:01;4.97;;;1.95;;
61188;SDS011;47054;39.716;2.904;2022-09-09T02:58:05;6.60;;;1.88;;
61188;SDS011;47054;39.716;2.904;2022-09-09T03:00:53;4.25;;;1.75;;
61188;SDS011;47054;39.716;2.904;2022-09-09T03:03:38;5.85;;;2.00;;
61188;SDS011;47054;39.716;2.904;2022-09-09T03:06:28;6.50;;;1.92;;
61188;SDS011;47054;39.716;2.904;2022-09-09T03:09:22;4.78;;;2.00;;
61188;SDS011;47054;39.716;2.904;2022-09-09T03:12:07;5.65;;;2.00;;
61188;SDS011;47054;39.716;2.904;2022-09-09T03:14:53;7.75;;;1.98;;
61188;SDS011;47054;39.716;2.904;2022-09-09T03:17:37;3.97;;;2.00;;
61188;SDS011;47054;39.716;2.904;2022-09-09T03:20:22;6.20;;;2.42;;
61188;SDS011;47054;39.716;2.904;2022-09-09T03:23:08;4.30;;;1.90;;
61188;SDS011;47054;39.716;2.904;2022-09-09T03:25:53;5.45;;;1.90;;
61188;SDS011;47054;39.716;2.904;2022-09-09T03:28:47;6.43;;;2.28;;
61188;SDS011;47054;39.716;2.904;2022-09-09T03:31:35;6.15;;;2.17;;
61188;SDS011;47054;39.716;2.904;2022-09-09T03:34:21;4.63;;;1.92;;
61188;SDS011;47054;39.716;2.904;2022-09-09T03:37:05;3.97;;;1.95;;
61188;SDS011;47054;39.716;2.904;2022-09-09T03:39:50;3.67;;;1.92;;
61188;SDS011;47054;39.716;2.904;2022-09-09T03:42:36;5.63;;;2.10;;
61188;SDS011;47054;39.716;2.904;2022-09-09T03:45:22;6.32;;;2.22;;
61188;SDS011;47054;39.716;2.904;2022-09-09T03:48:07;5.00;;;1.90;;
61188;SDS011;47054;39.716;2.904;2022-09-09T03:50:56;6.47;;;2.22;;
61188;SDS011;47054;39.716;2.904;2022-09-09T03:53:42;4.40;;;2.28;;
61188;SDS011;47054;39.716;2.904;2022-09-09T03:56:27;7.43;;;2.85;;
61188;SDS011;47054;39.716;2.904;2022-09-09T03:59:12;7.65;;;2.40;;
61188;SDS011;47054;39.716;2.904;2022-09-09T04:01:59;6.25;;;2.20;;
61188;SDS011;47054;39.716;2.904;2022-09-09T04:04:45;3.97;;;2.40;;
61188;SDS011;47054;39.716;2.904;2022-09-09T04:07:29;5.43;;;2.20;;
61188;SDS011;47054;39.716;2.904;2022-09-09T04:10:14;5.55;;;2.40;;
61188;SDS011;47054;39.716;2.904;2022-09-09T04:13:01;5.95;;;2.13;;
61188;SDS011;47054;39.716;2.904;2022-09-09T04:15:50;7.82;;;2.58;;
61188;SDS011;47054;39.716;2.904;2022-09-09T04:18:37;5.82;;;2.45;;
61188;SDS011;47054;39.716;2.904;2022-09-09T04:21:22;7.53;;;2.17;;
61188;SDS011;47054;39.716;2.904;2022-09-09T04:24:08;4.85;;;2.17;;
61188;SDS011;47054;39.716;2.904;2022-09-09T04:26:52;5.78;;;2.70;;
61188;SDS011;47054;39.716;2.904;2022-09-09T04:29:38;6.25;;;2.35;;
61188;SDS011;47054;39.716;2.904;2022-09-09T04:32:22;7.60;;;2.53;;
61188;SDS011;47054;39.716;2.904;2022-09-09T04:35:07;6.45;;;2.28;;
61188;SDS011;47054;39.716;2.904;2022-09-09T04:37:52;5.57;;;2.08;;
61188;SDS011;47054;39.716;2.904;2022-09-09T04:40:37;5.07;;;2.10;;
61188;SDS011;47054;39.716;2.904;2022-09-09T04:43:27;6.50;;;2.30;;
61188;SDS011;47054;39.716;2.904;2022-09-09T04:46:12;5.25;;;2.35;;
61188;SDS011;47054;39.716;2.904;2022-09-09T04:48:56;5.35;;;2.17;;
61188;SDS011;47054;39.716;2.904;2022-09-09T04:51:45;5.82;;;2.97;;
61188;SDS011;47054;39.716;2.904;2022-09-09T04:54:31;9.10;;;2.35;;
61188;SDS011;47054;39.716;2.904;2022-09-09T04:57:16;7.30;;;2.97;;
61188;SDS011;47054;39.716;2.904;2022-09-09T05:00:01;9.63;;;3.22;;
61188;SDS011;47054;39.716;2.904;2022-09-09T05:02:52;6.88;;;2.85;;
61188;SDS011;47054;39.716;2.904;2022-09-09T05:05:36;6.40;;;3.13;;
61188;SDS011;47054;39.716;2.904;2022-09-09T05:08:22;8.35;;;2.60;;
61188;SDS011;47054;39.716;2.904;2022-09-09T05:11:20;4.00;;;2.20;;
61188;SDS011;47054;39.716;2.904;2022-09-09T05:14:12;7.93;;;2.47;;
61188;SDS011;47054;39.716;2.904;2022-09-09T05:16:58;4.55;;;2.28;;
61188;SDS011;47054;39.716;2.904;2022-09-09T05:19:43;8.00;;;2.63;;
61188;SDS011;47054;39.716;2.904;2022-09-09T05:22:28;4.65;;;2.72;;
61188;SDS011;47054;39.716;2.904;2022-09-09T05:25:14;6.32;;;2.40;;
61188;SDS011;47054;39.716;2.904;2022-09-09T05:27:59;6.88;;;2.60;;
61188;SDS011;47054;39.716;2.904;2022-09-09T05:30:44;8.05;;;2.90;;
61188;SDS011;47054;39.716;2.904;2022-09-09T05:33:28;7.43;;;3.20;;
61188;SDS011;47054;39.716;2.904;2022-09-09T05:36:15;6.38;;;2.83;;
61188;SDS011;47054;39.716;2.904;2022-09-09T05:39:01;6.45;;;3.00;;
61188;SDS011;47054;39.716;2.904;2022-09-09T05:41:49;6.30;;;3.03;;
61188;SDS011;47054;39.716;2.904;2022-09-09T05:44:34;7.45;;;3.45;;
61188;SDS011;47054;39.716;2.904;2022-09-09T05:47:20;6.25;;;3.38;;
61188;SDS011;47054;39.716;2.904;2022-09-09T05:50:04;11.82;;;3.70;;
61188;SDS011;47054;39.716;2.904;2022-09-09T05:52:49;8.32;;;3.83;;
61188;SDS011;47054;39.716;2.904;2022-09-09T05:55:34;9.23;;;3.80;;
61188;SDS011;47054;39.716;2.904;2022-09-09T05:58:19;11.20;;;4.15;;
61188;SDS011;47054;39.716;2.904;2022-09-09T06:01:10;11.98;;;4.22;;
61188;SDS011;47054;39.716;2.904;2022-09-09T06:04:00;13.73;;;4.30;;
61188;SDS011;47054;39.716;2.904;2022-09-09T06:06:46;10.48;;;4.97;;
61188;SDS011;47054;39.716;2.904;2022-09-09T06:09:34;12.07;;;4.22;;
61188;SDS011;47054;39.716;2.904;2022-09-09T06:12:19;10.15;;;4.40;;
61188;SDS011;47054;39.716;2.904;2022-09-09T06:15:05;9.50;;;4.05;;
61188;SDS011;47054;39.716;2.904;2022-09-09T06:17:54;17.63;;;4.45;;
61188;SDS011;47054;39.716;2.904;2022-09-09T06:20:39;12.23;;;3.70;;
61188;SDS011;47054;39.716;2.904;2022-09-09T06:23:24;7.43;;;3.40;;
61188;SDS011;47054;39.716;2.904;2022-09-09T06:28:59;12.20;;;2.92;;
61188;SDS011;47054;39.716;2.904;2022-09-09T06:31:46;18.77;;;3.60;;
61188;SDS011;47054;39.716;2.904;2022-09-09T06:34:35;9.85;;;3.42;;
61188;SDS011;47054;39.716;2.904;2022-09-09T06:37:21;9.90;;;4.05;;
61188;SDS011;47054;39.716;2.904;2022-09-09T06:40:08;6.97;;;3.67;;
61188;SDS011;47054;39.716;2.904;2022-09-09T06:42:54;13.27;;;3.25;;
61188;SDS011;47054;39.716;2.904;2022-09-09T06:48:42;9.05;;;2.92;;
61188;SDS011;47054;39.716;2.904;2022-09-09T06:51:34;7.55;;;2.70;;
61188;SDS011;47054;39.716;2.904;2022-09-09T06:54:21;5.72;;;3.17;;
61188;SDS011;47054;39.716;2.904;2022-09-09T06:57:06;6.28;;;3.00;;
61188;SDS011;47054;39.716;2.904;2022-09-09T06:59:53;5.95;;;3.20;;
61188;SDS011;47054;39.716;2.904;2022-09-09T07:02:38;6.30;;;3.17;;
61188;SDS011;47054;39.716;2.904;2022-09-09T07:05:24;7.15;;;3.28;;
61188;SDS011;47054;39.716;2.904;2022-09-09T07:08:10;6.93;;;3.08;;
61188;SDS011;47054;39.716;2.904;2022-09-09T07:10:55;9.43;;;3.05;;
61188;SDS011;47054;39.716;2.904;2022-09-09T07:13:49;7.13;;;3.30;;
61188;SDS011;47054;39.716;2.904;2022-09-09T07:16:34;5.28;;;2.70;;
61188;SDS011;47054;39.716;2.904;2022-09-09T07:19:21;9.85;;;2.67;;
61188;SDS011;47054;39.716;2.904;2022-09-09T07:22:09;12.45;;;3.75;;
61188;SDS011;47054;39.716;2.904;2022-09-09T07:24:55;9.18;;;3.30;;
61188;SDS011;47054;39.716;2.904;2022-09-09T07:27:40;10.70;;;3.53;;
61188;SDS011;47054;39.716;2.904;2022-09-09T07:30:25;9.32;;;3.45;;
61188;SDS011;47054;39.716;2.904;2022-09-09T07:33:10;7.97;;;3.28;;
61188;SDS011;47054;39.716;2.904;2022-09-09T07:36:01;8.50;;;3.15;;
61188;SDS011;47054;39.716;2.904;2022-09-09T07:38:51;13.15;;;4.00;;
61188;SDS011;47054;39.716;2.904;2022-09-09T07:41:40;9.35;;;3.65;;
61188;SDS011;47054;39.716;2.904;2022-09-09T07:44:28;11.07;;;4.38;;
61188;SDS011;47054;39.716;2.904;2022-09-09T07:47:20;9.25;;;3.60;;
61188;SDS011;47054;39.716;2.904;2022-09-09T07:50:08;7.15;;;3.42;;
61188;SDS011;47054;39.716;2.904;2022-09-09T07:52:54;10.10;;;3.55;;
61188;SDS011;47054;39.716;2.904;2022-09-09T07:55:39;15.45;;;3.85;;
61188;SDS011;47054;39.716;2.904;2022-09-09T07:58:24;14.55;;;3.85;;
61188;SDS011;47054;39.716;2.904;2022-09-09T08:01:16;10.57;;;3.60;;
61188;SDS011;47054;39.716;2.904;2022-09-09T08:04:16;7.25;;;3.67;;
61188;SDS011;47054;39.716;2.904;2022-09-09T08:09:53;13.98;;;3.25;;
61188;SDS011;47054;39.716;2.904;2022-09-09T08:12:44;9.20;;;3.15;;
61188;SDS011;47054;39.716;2.904;2022-09-09T08:15:29;10.73;;;3.00;;
61188;SDS011;47054;39.716;2.904;2022-09-09T08:18:15;10.82;;;3.13;;
61188;SDS011;47054;39.716;2.904;2022-09-09T08:21:10;12.98;;;2.92;;
61188;SDS011;47054;39.716;2.904;2022-09-09T08:23:59;5.10;;;2.58;;
61188;SDS011;47054;39.716;2.904;2022-09-09T08:26:46;6.85;;;2.55;;
61188;SDS011;47054;39.716;2.904;2022-09-09T08:29:38;8.50;;;2.50;;
61188;SDS011;47054;39.716;2.904;2022-09-09T08:32:23;6.45;;;2.60;;
61188;SDS011;47054;39.716;2.904;2022-09-09T08:35:08;7.57;;;2.50;;
61188;SDS011;47054;39.716;2.904;2022-09-09T08:37:53;7.80;;;2.58;;
61188;SDS011;47054;39.716;2.904;2022-09-09T08:40:40;6.68;;;2.10;;
61188;SDS011;47054;39.716;2.904;2022-09-09T08:43:32;6.88;;;2.03;;
61188;SDS011;47054;39.716;2.904;2022-09-09T08:46:26;6.78;;;2.00;;
61188;SDS011;47054;39.716;2.904;2022-09-09T08:49:38;6.25;;;2.20;;
61188;SDS011;47054;39.716;2.904;2022-09-09T08:55:50;8.55;;;2.15;;
61188;SDS011;47054;39.716;2.904;2022-09-09T08:58:46;5.35;;;1.80;;
61188;SDS011;47054;39.716;2.904;2022-09-09T09:10:49;8.48;;;1.80;;
61188;SDS011;47054;39.716;2.904;2022-09-09T09:16:33;5.78;;;1.90;;
61188;SDS011;47054;39.716;2.904;2022-09-09T09:19:23;8.07;;;2.13;;
61188;SDS011;47054;39.716;2.904;2022-09-09T09:25:39;5.07;;;2.67;;
61188;SDS011;47054;39.716;2.904;2022-09-09T09:28:29;7.07;;;2.22;;
61188;SDS011;47054;39.716;2.904;2022-09-09T09:31:21;6.82;;;2.00;;
61188;SDS011;47054;39.716;2.904;2022-09-09T09:34:08;13.05;;;2.08;;
61188;SDS011;47054;39.716;2.904;2022-09-09T09:36:55;8.43;;;2.22;;
61188;SDS011;47054;39.716;2.904;2022-09-09T09:44:05;6.68;;;1.88;;
61188;SDS011;47054;39.716;2.904;2022-09-09T09:47:57;2.40;;;1.50;;
61188;SDS011;47054;39.716;2.904;2022-09-09T09:55:12;7.20;;;1.92;;
61188;SDS011;47054;39.716;2.904;2022-09-09T09:58:31;4.75;;;2.50;;
61188;SDS011;47054;39.716;2.904;2022-09-09T10:01:33;3.50;;;1.70;;
61188;SDS011;47054;39.716;2.904;2022-09-09T10:04:23;5.53;;;1.80;;
61188;SDS011;47054;39.716;2.904;2022-09-09T10:07:20;7.78;;;2.00;;
61188;SDS011;47054;39.716;2.904;2022-09-09T10:10:08;5.63;;;1.60;;
61188;SDS011;47054;39.716;2.904;2022-09-09T10:13:11;4.10;;;1.48;;
61188;SDS011;47054;39.716;2.904;2022-09-09T10:19:18;3.88;;;1.63;;
61188;SDS011;47054;39.716;2.904;2022-09-09T10:22:45;5.22;;;1.48;;
61188;SDS011;47054;39.716;2.904;2022-09-09T10:34:16;3.80;;;1.50;;
61188;SDS011;47054;39.716;2.904;2022-09-09T10:37:33;5.65;;;1.60;;
61188;SDS011;47054;39.716;2.904;2022-09-09T10:53:32;8.60;;;1.95;;
61188;SDS011;47054;39.716;2.904;2022-09-09T10:56:21;7.05;;;1.83;;
61188;SDS011;47054;39.716;2.904;2022-09-09T10:59:16;5.90;;;1.80;;
61188;SDS011;47054;39.716;2.904;2022-09-09T11:02:27;5.57;;;2.35;;
61188;SDS011;47054;39.716;2.904;2022-09-09T11:05:17;7.50;;;2.28;;
61188;SDS011;47054;39.716;2.904;2022-09-09T11:17:12;3.83;;;1.73;;
61188;SDS011;47054;39.716;2.904;2022-09-09T11:20:02;9.20;;;2.00;;
61188;SDS011;47054;39.716;2.904;2022-09-09T11:22:55;4.47;;;1.98;;
61188;SDS011;47054;39.716;2.904;2022-09-09T11:25:53;6.18;;;2.30;;
61188;SDS011;47054;39.716;2.904;2022-09-09T11:28:46;4.43;;;2.20;;
61188;SDS011;47054;39.716;2.904;2022-09-09T11:31:45;4.10;;;2.00;;
61188;SDS011;47054;39.716;2.904;2022-09-09T11:38:02;5.85;;;2.05;;
61188;SDS011;47054;39.716;2.904;2022-09-09T11:41:03;9.75;;;3.05;;
61188;SDS011;47054;39.716;2.904;2022-09-09T11:43:52;4.32;;;2.15;;
61188;SDS011;47054;39.716;2.904;2022-09-09T11:46:37;4.03;;;2.17;;
61188;SDS011;47054;39.716;2.904;2022-09-09T11:49:28;3.85;;;2.00;;
61188;SDS011;47054;39.716;2.904;2022-09-09T11:52:25;4.57;;;1.98;;
61188;SDS011;47054;39.716;2.904;2022-09-09T12:00:56;3.80;;;2.03;;
61188;SDS011;47054;39.716;2.904;2022-09-09T12:03:45;6.80;;;1.98;;
61188;SDS011;47054;39.716;2.904;2022-09-09T12:06:33;6.85;;;1.95;;
61188;SDS011;47054;39.716;2.904;2022-09-09T12:15:20;6.45;;;1.83;;
61188;SDS011;47054;39.716;2.904;2022-09-09T12:18:14;3.35;;;1.80;;
61188;SDS011;47054;39.716;2.904;2022-09-09T12:24:28;3.58;;;2.03;;
61188;SDS011;47054;39.716;2.904;2022-09-09T12:27:27;4.72;;;1.95;;
61188;SDS011;47054;39.716;2.904;2022-09-09T12:30:17;4.03;;;1.90;;
61188;SDS011;47054;39.716;2.904;2022-09-09T12:33:06;4.78;;;1.80;;
61188;SDS011;47054;39.716;2.904;2022-09-09T12:35:55;4.10;;;1.88;;
61188;SDS011;47054;39.716;2.904;2022-09-09T12:38:42;4.10;;;1.90;;
61188;SDS011;47054;39.716;2.904;2022-09-09T12:41:28;7.75;;;1.80;;
61188;SDS011;47054;39.716;2.904;2022-09-09T12:44:12;4.82;;;2.15;;
61188;SDS011;47054;39.716;2.904;2022-09-09T12:46:58;4.30;;;1.63;;
61188;SDS011;47054;39.716;2.904;2022-09-09T12:49:47;7.38;;;1.70;;
61188;SDS011;47054;39.716;2.904;2022-09-09T12:52:37;3.78;;;1.65;;
61188;SDS011;47054;39.716;2.904;2022-09-09T12:55:25;5.05;;;1.77;;
61188;SDS011;47054;39.716;2.904;2022-09-09T12:58:14;5.95;;;1.80;;
61188;SDS011;47054;39.716;2.904;2022-09-09T13:01:03;5.00;;;1.90;;
61188;SDS011;47054;39.716;2.904;2022-09-09T13:03:49;7.97;;;1.90;;
61188;SDS011;47054;39.716;2.904;2022-09-09T13:06:34;4.82;;;1.88;;
61188;SDS011;47054;39.716;2.904;2022-09-09T13:09:19;4.18;;;1.70;;
61188;SDS011;47054;39.716;2.904;2022-09-09T13:12:04;3.70;;;1.70;;
61188;SDS011;47054;39.716;2.904;2022-09-09T13:14:53;7.10;;;1.80;;
61188;SDS011;47054;39.716;2.904;2022-09-09T13:17:40;5.50;;;1.73;;
61188;SDS011;47054;39.716;2.904;2022-09-09T13:20:25;3.45;;;1.80;;
61188;SDS011;47054;39.716;2.904;2022-09-09T13:23:09;7.00;;;1.65;;
61188;SDS011;47054;39.716;2.904;2022-09-09T13:25:57;5.10;;;1.77;;
61188;SDS011;47054;39.716;2.904;2022-09-09T13:28:47;7.22;;;1.75;;
61188;SDS011;47054;39.716;2.904;2022-09-09T13:31:33;4.47;;;1.75;;
61188;SDS011;47054;39.716;2.904;2022-09-09T13:34:28;3.42;;;1.60;;
61188;SDS011;47054;39.716;2.904;2022-09-09T13:37:23;6.63;;;1.70;;
61188;SDS011;47054;39.716;2.904;2022-09-09T13:40:21;3.75;;;2.00;;
61188;SDS011;47054;39.716;2.904;2022-09-09T13:43:12;5.88;;;2.00;;
61188;SDS011;47054;39.716;2.904;2022-09-09T13:46:22;5.32;;;1.67;;
61188;SDS011;47054;39.716;2.904;2022-09-09T13:49:22;5.93;;;1.70;;
61188;SDS011;47054;39.716;2.904;2022-09-09T13:52:12;5.40;;;1.70;;
61188;SDS011;47054;39.716;2.904;2022-09-09T13:54:58;12.55;;;1.90;;
61188;SDS011;47054;39.716;2.904;2022-09-09T14:00:49;5.35;;;1.90;;
61188;SDS011;47054;39.716;2.904;2022-09-09T14:03:34;8.45;;;1.75;;
61188;SDS011;47054;39.716;2.904;2022-09-09T14:06:18;5.13;;;1.95;;
61188;SDS011;47054;39.716;2.904;2022-09-09T14:09:06;4.47;;;1.85;;
61188;SDS011;47054;39.716;2.904;2022-09-09T14:11:54;5.43;;;1.83;;
61188;SDS011;47054;39.716;2.904;2022-09-09T14:14:42;4.65;;;1.77;;
61188;SDS011;47054;39.716;2.904;2022-09-09T14:17:27;6.20;;;1.85;;
61188;SDS011;47054;39.716;2.904;2022-09-09T14:20:15;8.18;;;2.20;;
61188;SDS011;47054;39.716;2.904;2022-09-09T14:23:01;6.10;;;1.90;;
61188;SDS011;47054;39.716;2.904;2022-09-09T14:25:46;6.00;;;2.15;;
61188;SDS011;47054;39.716;2.904;2022-09-09T14:28:30;5.13;;;2.03;;
61188;SDS011;47054;39.716;2.904;2022-09-09T14:31:17;9.52;;;2.10;;
61188;SDS011;47054;39.716;2.904;2022-09-09T14:34:02;5.70;;;2.20;;
61188;SDS011;47054;39.716;2.904;2022-09-09T14:36:47;7.05;;;2.20;;
61188;SDS011;47054;39.716;2.904;2022-09-09T14:39:32;6.57;;;2.30;;
61188;SDS011;47054;39.716;2.904;2022-09-09T14:42:17;6.70;;;1.83;;
61188;SDS011;47054;39.716;2.904;2022-09-09T14:45:02;5.22;;;1.77;;
61188;SDS011;47054;39.716;2.904;2022-09-09T14:47:49;7.82;;;1.90;;
61188;SDS011;47054;39.716;2.904;2022-09-09T14:50:33;5.90;;;1.85;;
61188;SDS011;47054;39.716;2.904;2022-09-09T14:53:20;4.57;;;2.00;;
61188;SDS011;47054;39.716;2.904;2022-09-09T14:56:06;7.03;;;2.17;;
61188;SDS011;47054;39.716;2.904;2022-09-09T14:58:56;6.82;;;2.55;;
61188;SDS011;47054;39.716;2.904;2022-09-09T15:01:42;6.00;;;1.73;;
61188;SDS011;47054;39.716;2.904;2022-09-09T15:04:26;5.93;;;1.70;;
61188;SDS011;47054;39.716;2.904;2022-09-09T15:07:11;7.18;;;1.80;;
61188;SDS011;47054;39.716;2.904;2022-09-09T15:09:56;10.80;;;2.38;;
61188;SDS011;47054;39.716;2.904;2022-09-09T15:12:40;6.13;;;2.08;;
61188;SDS011;47054;39.716;2.904;2022-09-09T15:15:26;6.78;;;2.45;;
61188;SDS011;47054;39.716;2.904;2022-09-09T15:18:10;6.10;;;1.90;;
61188;SDS011;47054;39.716;2.904;2022-09-09T15:20:56;4.32;;;1.60;;
61188;SDS011;47054;39.716;2.904;2022-09-09T15:23:42;4.60;;;1.80;;
61188;SDS011;47054;39.716;2.904;2022-09-09T15:26:27;10.20;;;1.98;;
61188;SDS011;47054;39.716;2.904;2022-09-09T15:29:13;5.90;;;1.90;;
61188;SDS011;47054;39.716;2.904;2022-09-09T15:31:58;5.60;;;1.80;;
61188;SDS011;47054;39.716;2.904;2022-09-09T15:34:42;3.13;;;1.63;;
61188;SDS011;47054;39.716;2.904;2022-09-09T15:37:27;5.50;;;1.75;;
61188;SDS011;47054;39.716;2.904;2022-09-09T15:40:12;6.00;;;1.80;;
61188;SDS011;47054;39.716;2.904;2022-09-09T15:42:57;6.82;;;1.70;;
61188;SDS011;47054;39.716;2.904;2022-09-09T15:45:41;6.85;;;2.08;;
61188;SDS011;47054;39.716;2.904;2022-09-09T15:48:30;3.80;;;2.00;;
61188;SDS011;47054;39.716;2.904;2022-09-09T15:54:02;7.47;;;1.83;;
61188;SDS011;47054;39.716;2.904;2022-09-09T15:56:49;6.75;;;1.77;;
61188;SDS011;47054;39.716;2.904;2022-09-09T15:59:36;4.18;;;1.90;;
61188;SDS011;47054;39.716;2.904;2022-09-09T16:02:21;5.68;;;1.83;;
61188;SDS011;47054;39.716;2.904;2022-09-09T16:05:06;4.30;;;1.90;;
61188;SDS011;47054;39.716;2.904;2022-09-09T16:07:51;5.90;;;2.08;;
61188;SDS011;47054;39.716;2.904;2022-09-09T16:10:36;6.68;;;2.03;;
61188;SDS011;47054;39.716;2.904;2022-09-09T16:13:21;8.32;;;2.22;;
61188;SDS011;47054;39.716;2.904;2022-09-09T16:16:06;6.30;;;2.30;;
61188;SDS011;47054;39.716;2.904;2022-09-09T16:18:52;4.82;;;2.00;;
61188;SDS011;47054;39.716;2.904;2022-09-09T16:21:39;4.63;;;1.85;;
61188;SDS011;47054;39.716;2.904;2022-09-09T16:24:25;9.55;;;1.95;;
61188;SDS011;47054;39.716;2.904;2022-09-09T16:27:10;6.63;;;1.92;;
61188;SDS011;47054;39.716;2.904;2022-09-09T16:29:55;3.95;;;1.80;;
61188;SDS011;47054;39.716;2.904;2022-09-09T16:32:40;8.40;;;2.00;;
61188;SDS011;47054;39.716;2.904;2022-09-09T16:35:24;7.57;;;2.03;;
61188;SDS011;47054;39.716;2.904;2022-09-09T16:38:09;5.72;;;2.00;;
61188;SDS011;47054;39.716;2.904;2022-09-09T16:40:58;8.23;;;3.20;;
61188;SDS011;47054;39.716;2.904;2022-09-09T16:43:43;9.95;;;3.03;;
61188;SDS011;47054;39.716;2.904;2022-09-09T16:46:28;9.13;;;2.70;;
61188;SDS011;47054;39.716;2.904;2022-09-09T16:49:14;5.60;;;2.15;;
61188;SDS011;47054;39.716;2.904;2022-09-09T16:52:00;8.63;;;2.55;;
61188;SDS011;47054;39.716;2.904;2022-09-09T16:54:45;5.57;;;2.30;;
61188;SDS011;47054;39.716;2.904;2022-09-09T16:57:30;7.32;;;1.77;;
61188;SDS011;47054;39.716;2.904;2022-09-09T17:00:15;7.35;;;2.10;;
61188;SDS011;47054;39.716;2.904;2022-09-09T17:03:02;5.50;;;2.03;;
61188;SDS011;47054;39.716;2.904;2022-09-09T17:05:47;6.72;;;2.00;;
61188;SDS011;47054;39.716;2.904;2022-09-09T17:08:31;5.97;;;2.28;;
61188;SDS011;47054;39.716;2.904;2022-09-09T17:11:18;6.22;;;2.13;;
61188;SDS011;47054;39.716;2.904;2022-09-09T17:14:03;9.48;;;2.20;;
61188;SDS011;47054;39.716;2.904;2022-09-09T17:16:49;4.25;;;1.90;;
61188;SDS011;47054;39.716;2.904;2022-09-09T17:19:34;6.85;;;2.40;;
61188;SDS011;47054;39.716;2.904;2022-09-09T17:22:19;6.93;;;2.00;;
61188;SDS011;47054;39.716;2.904;2022-09-09T17:25:04;7.30;;;1.80;;
61188;SDS011;47054;39.716;2.904;2022-09-09T17:27:48;5.75;;;2.05;;
61188;SDS011;47054;39.716;2.904;2022-09-09T17:30:35;6.05;;;1.90;;
61188;SDS011;47054;39.716;2.904;2022-09-09T17:33:21;9.35;;;1.90;;
61188;SDS011;47054;39.716;2.904;2022-09-09T17:38:58;7.00;;;2.00;;
61188;SDS011;47054;39.716;2.904;2022-09-09T17:41:44;7.03;;;2.10;;
61188;SDS011;47054;39.716;2.904;2022-09-09T17:44:29;4.72;;;2.03;;
61188;SDS011;47054;39.716;2.904;2022-09-09T17:47:15;17.23;;;2.20;;
61188;SDS011;47054;39.716;2.904;2022-09-09T17:50:00;16.05;;;2.25;;
61188;SDS011;47054;39.716;2.904;2022-09-09T17:52:45;43.80;;;4.70;;
61188;SDS011;47054;39.716;2.904;2022-09-09T17:55:32;46.25;;;4.47;;
61188;SDS011;47054;39.716;2.904;2022-09-09T17:58:17;22.70;;;3.03;;
61188;SDS011;47054;39.716;2.904;2022-09-09T18:01:06;6.57;;;2.20;;
61188;SDS011;47054;39.716;2.904;2022-09-09T18:04:01;47.65;;;4.40;;
61188;SDS011;47054;39.716;2.904;2022-09-09T18:06:48;38.45;;;2.90;;
61188;SDS011;47054;39.716;2.904;2022-09-09T18:09:33;29.77;;;3.65;;
61188;SDS011;47054;39.716;2.904;2022-09-09T18:12:18;10.50;;;2.00;;
61188;SDS011;47054;39.716;2.904;2022-09-09T18:15:02;15.18;;;2.55;;
61188;SDS011;47054;39.716;2.904;2022-09-09T18:17:48;6.05;;;1.70;;
61188;SDS011;47054;39.716;2.904;2022-09-09T18:20:32;7.90;;;2.05;;
61188;SDS011;47054;39.716;2.904;2022-09-09T18:23:17;10.25;;;1.92;;
61188;SDS011;47054;39.716;2.904;2022-09-09T18:26:08;7.32;;;1.98;;
61188;SDS011;47054;39.716;2.904;2022-09-09T18:28:56;7.28;;;1.80;;
61188;SDS011;47054;39.716;2.904;2022-09-09T18:31:42;6.13;;;2.00;;
61188;SDS011;47054;39.716;2.904;2022-09-09T18:34:26;5.10;;;1.70;;
61188;SDS011;47054;39.716;2.904;2022-09-09T18:37:13;5.28;;;2.00;;
61188;SDS011;47054;39.716;2.904;2022-09-09T18:39:58;4.38;;;1.80;;
61188;SDS011;47054;39.716;2.904;2022-09-09T18:42:42;3.80;;;1.60;;
61188;SDS011;47054;39.716;2.904;2022-09-09T18:45:30;8.07;;;1.90;;
61188;SDS011;47054;39.716;2.904;2022-09-09T18:48:19;7.20;;;2.15;;
61188;SDS011;47054;39.716;2.904;2022-09-09T18:51:04;4.72;;;2.00;;
61188;SDS011;47054;39.716;2.904;2022-09-09T18:54:01;4.32;;;2.00;;
61188;SDS011;47054;39.716;2.904;2022-09-09T18:56:47;3.63;;;2.03;;
61188;SDS011;47054;39.716;2.904;2022-09-09T18:59:32;10.00;;;2.40;;
61188;SDS011;47054;39.716;2.904;2022-09-09T19:02:17;5.68;;;1.88;;
61188;SDS011;47054;39.716;2.904;2022-09-09T19:05:02;4.50;;;2.17;;
61188;SDS011;47054;39.716;2.904;2022-09-09T19:07:47;6.60;;;2.00;;
61188;SDS011;47054;39.716;2.904;2022-09-09T19:10:34;5.45;;;2.05;;
61188;SDS011;47054;39.716;2.904;2022-09-09T19:13:20;3.53;;;1.60;;
61188;SDS011;47054;39.716;2.904;2022-09-09T19:16:05;5.20;;;1.85;;
61188;SDS011;47054;39.716;2.904;2022-09-09T19:18:51;5.60;;;1.92;;
61188;SDS011;47054;39.716;2.904;2022-09-09T19:21:36;6.78;;;1.83;;